KACV/ACV METAR and TAF weather

Enter ICAO airport designator
Station Type Date Time Source
KACV METAR 2021/10/22 19:53 UTC NOAA

KACV 221953Z AUTO 22011KT 9SM FEW060 16/11 A2996 RMK AO2 SLP149 T01560111


Station Type Date Time Source
KACV Decoded METAR 2021/10/22 19:53 UTC NOAA

ARCATA/EUREKA ARCATA AIRPORT, CA, United States (KACV) 40-59N 124-06W 67M
Oct 22, 2021 - 03:53 PM EDT / 2021.10.22 1953 UTC
Wind: from the SW (220 degrees) at 13 MPH (11 KT):0
Visibility: 9 mile(s):0
Sky conditions: mostly clear
Temperature: 60.1 F (15.6 C)
Dew Point: 52.0 F (11.1 C)
Relative Humidity: 74%
Pressure (altimeter): 29.96 in. Hg (1014 hPa)
ob: KACV 221953Z AUTO 22011KT 9SM FEW060 16/11 A2996 RMK AO2 SLP149 T01560111
cycle: 20

Station Type Date Time Source
KACV TAF 2021/10/22 18:42 UTC NOAA

TAF KACV 221738Z 2218/2318 17008KT P6SM VCSH SCT012 OVC035
FM222100 21009KT 6SM HZ OVC050
FM230700 14004KT 4SM -RA BR OVC050
FM231200 15009KT 4SM -RA OVC025

Example: see airport list